createdAt,value
2024-02-13T00:02:29.786Z,99142.75
2024-02-13T00:05:31.508Z,99146.31
2024-02-13T00:08:44.104Z,99145.88
2024-02-13T00:11:47.339Z,99147.03
2024-02-13T00:14:50.406Z,99148.13
2024-02-13T00:17:52.842Z,99160.16
2024-02-13T00:20:54.738Z,99159.38
2024-02-13T00:23:56.605Z,99155.13
2024-02-13T00:26:58.454Z,99165.75
2024-02-13T00:30:01.614Z,99157.13
2024-02-13T00:33:03.494Z,99171.06
2024-02-13T00:36:05.554Z,99171.19
2024-02-13T00:39:07.199Z,99182.69
2024-02-13T00:42:08.852Z,99180.06
2024-02-13T00:45:12.412Z,99173.84
2024-02-13T00:48:14.579Z,99180.09
2024-02-13T00:51:16.298Z,99182.47
2024-02-13T00:54:17.953Z,99164.31
2024-02-13T00:57:19.634Z,99181.00
2024-02-13T01:00:22.888Z,99173.94
2024-02-13T01:03:24.537Z,99185.19
2024-02-13T01:06:26.235Z,99190.41
2024-02-13T01:09:27.874Z,99196.94
2024-02-13T01:12:29.546Z,99203.13
2024-02-13T01:15:32.577Z,99199.72
2024-02-13T01:18:34.295Z,99197.84
2024-02-13T01:21:35.994Z,99198.00
2024-02-13T01:24:37.666Z,99195.22
2024-02-13T01:27:39.303Z,99200.56
2024-02-13T01:30:42.288Z,99199.69
2024-02-13T01:33:44.985Z,99203.44
2024-02-13T01:36:46.707Z,99207.88
2024-02-13T01:39:48.382Z,99207.97
2024-02-13T01:42:51.013Z,99202.63
2024-02-13T01:45:54.201Z,99216.66
2024-02-13T01:48:56.234Z,99217.59
2024-02-13T01:52:00.295Z,99217.56
2024-02-13T01:55:03.530Z,99217.63
2024-02-13T01:58:06.694Z,99224.56
2024-02-13T02:01:09.814Z,99218.44
2024-02-13T02:04:12.859Z,99230.84
2024-02-13T02:07:15.220Z,99234.25
2024-02-13T02:10:17.082Z,99236.13
2024-02-13T02:13:18.868Z,99228.09
2024-02-13T02:16:21.875Z,99246.53
2024-02-13T02:19:23.599Z,99240.66
2024-02-13T02:22:25.344Z,99246.84
2024-02-13T02:25:28.415Z,99249.41
2024-02-13T02:28:30.231Z,99243.25
2024-02-13T02:31:31.868Z,99241.59
2024-02-13T02:34:33.691Z,99256.59
2024-02-13T02:37:35.376Z,99255.66
2024-02-13T02:40:38.420Z,99261.78
2024-02-13T02:43:40.146Z,99272.44
2024-02-13T02:46:42.318Z,99264.50
2024-02-13T02:49:44.169Z,99271.59
2024-02-13T02:52:45.903Z,99264.69
2024-02-13T02:55:49.430Z,99283.09
2024-02-13T02:58:51.096Z,99279.47
2024-02-13T03:01:52.775Z,99284.03
2024-02-13T03:04:54.984Z,99286.69
2024-02-13T03:07:56.644Z,99293.72
2024-02-13T03:10:59.958Z,99285.66
2024-02-13T03:14:01.636Z,99298.84
2024-02-13T03:17:03.546Z,99303.38
2024-02-13T03:20:06.230Z,99307.75
2024-02-13T03:23:07.920Z,99311.28
2024-02-13T03:26:11.493Z,99320.13
2024-02-13T03:29:13.219Z,99312.19
2024-02-13T03:32:14.888Z,99329.75
2024-02-13T03:35:16.615Z,99324.44
2024-02-13T03:38:18.509Z,99322.75
2024-02-13T03:41:21.624Z,99331.50
2024-02-13T03:44:23.372Z,99334.00
2024-02-13T03:47:25.179Z,99340.97
2024-02-13T03:50:27.006Z,99343.00
2024-02-13T03:53:28.783Z,99345.69
2024-02-13T03:56:31.839Z,99348.19
2024-02-13T03:59:33.608Z,99357.97
2024-02-13T04:02:35.430Z,99350.78
2024-02-13T04:05:37.187Z,99357.81
2024-02-13T04:08:38.956Z,99361.34
2024-02-13T04:11:44.379Z,99375.50
2024-02-13T04:14:46.139Z,99376.34
2024-02-13T04:17:48.963Z,99372.78
2024-02-13T04:20:50.762Z,99369.31
2024-02-13T04:23:52.524Z,99382.59
2024-02-13T04:26:55.636Z,99389.56
2024-02-13T04:29:57.503Z,99391.31
2024-02-13T04:32:59.439Z,99392.25
2024-02-13T04:36:01.260Z,99403.81
2024-02-13T04:39:02.910Z,99389.75
2024-02-13T04:42:06.098Z,99407.41
2024-02-13T04:45:08.302Z,99416.28
2024-02-13T04:48:10.043Z,99410.09
2024-02-13T04:51:11.727Z,99413.66
2024-02-13T04:54:13.446Z,99415.41
2024-02-13T04:57:16.465Z,99413.66
2024-02-13T05:00:18.920Z,99409.28
2024-02-13T05:03:20.574Z,99411.00
2024-02-13T05:06:22.298Z,99417.16
2024-02-13T05:09:24.078Z,99425.03
2024-02-13T05:12:27.129Z,99426.88
2024-02-13T05:15:28.780Z,99414.53
2024-02-13T05:18:30.548Z,99424.28
2024-02-13T05:21:32.573Z,99433.06
2024-02-13T05:24:34.253Z,99436.56
2024-02-13T05:27:37.232Z,99436.56
2024-02-13T05:30:38.894Z,99441.00
2024-02-13T05:33:40.850Z,99438.34
2024-02-13T05:36:42.636Z,99446.28
2024-02-13T05:39:44.273Z,99452.41
2024-02-13T05:42:47.299Z,99462.09
2024-02-13T05:45:48.984Z,99473.53
2024-02-13T05:48:50.754Z,99484.09
2024-02-13T05:51:52.530Z,99483.16
2024-02-13T05:54:54.461Z,99495.50
2024-02-13T05:57:57.502Z,99499.88
2024-02-13T06:00:59.359Z,99508.66
2024-02-13T06:04:01.316Z,99509.53
2024-02-13T06:07:03.214Z,99516.59
2024-02-13T06:10:05.662Z,99529.78
2024-02-13T06:13:08.701Z,99530.66
2024-02-13T06:16:10.357Z,99534.13
2024-02-13T06:19:12.292Z,99544.69
2024-02-13T06:22:14.138Z,99549.09
2024-02-13T06:25:15.773Z,99550.84
2024-02-13T06:28:18.826Z,99558.78
2024-02-13T06:31:20.471Z,99561.38
2024-02-13T06:34:22.379Z,99572.81
2024-02-13T06:37:24.374Z,99566.63
2024-02-13T06:40:26.094Z,99578.84
2024-02-13T06:43:29.104Z,99583.25
2024-02-13T06:46:30.733Z,99584.19
2024-02-13T06:49:32.645Z,99587.75
2024-02-13T06:52:34.341Z,99586.00
2024-02-13T06:55:36.056Z,99599.25
2024-02-13T06:58:39.114Z,99589.53
2024-02-13T07:01:40.804Z,99607.19
2024-02-13T07:04:42.483Z,99599.22
2024-02-13T07:07:47.718Z,99599.22
2024-02-13T07:10:50.288Z,99588.72
2024-02-13T07:13:53.343Z,99594.03
2024-02-13T07:16:55.073Z,99606.28
2024-02-13T07:19:56.870Z,99613.34
2024-02-13T07:22:58.602Z,99613.38
2024-02-13T07:26:00.299Z,99623.03
2024-02-13T07:29:03.308Z,99623.03
2024-02-13T07:32:06.500Z,99624.84
2024-02-13T07:35:09.353Z,99630.13
2024-02-13T07:38:11.029Z,99629.28
2024-02-13T07:41:12.709Z,99631.94
2024-02-13T07:44:15.730Z,99628.41
2024-02-13T07:47:17.425Z,99632.81
2024-02-13T07:50:20.269Z,99633.69
2024-02-13T07:53:22.051Z,99629.28
2024-02-13T07:56:23.832Z,99641.63
2024-02-13T07:59:26.928Z,99648.66
2024-02-13T08:02:28.922Z,99647.75
2024-02-13T08:05:30.716Z,99640.69
2024-02-13T08:08:32.494Z,99645.09
2024-02-13T08:11:35.418Z,99644.19
2024-02-13T08:14:38.514Z,99644.09
2024-02-13T08:17:40.278Z,99653.78
2024-02-13T08:20:42.209Z,99660.78
2024-02-13T08:23:44.453Z,99658.94
2024-02-13T08:26:46.160Z,99658.94
2024-02-13T08:29:49.283Z,99661.56
2024-02-13T08:32:51.109Z,99665.03
2024-02-13T08:35:52.879Z,99667.63
2024-02-13T08:38:54.622Z,99660.50
2024-02-13T08:41:56.490Z,99668.31
2024-02-13T08:44:59.604Z,99672.66
2024-02-13T08:48:01.595Z,99669.94
2024-02-13T08:51:03.746Z,99674.25
2024-02-13T08:54:06.095Z,99672.41
2024-02-13T08:57:08.034Z,99670.63
2024-02-13T09:00:12.118Z,99682.84
2024-02-13T09:03:13.850Z,99683.78
2024-02-13T09:06:15.587Z,99686.41
2024-02-13T09:09:17.391Z,99695.97
2024-02-13T09:12:19.043Z,99689.50
2024-02-13T09:15:22.034Z,99701.84
2024-02-13T09:18:23.983Z,99696.28
2024-02-13T09:21:25.926Z,99702.44
2024-02-13T09:24:27.621Z,99703.97
2024-02-13T09:27:29.277Z,99709.19
2024-02-13T09:30:32.295Z,99712.41
2024-02-13T09:33:34.113Z,99717.72
2024-02-13T09:36:37.636Z,99716.75
2024-02-13T09:39:39.260Z,99706.84
2024-02-13T09:42:41.644Z,99714.56
2024-02-13T09:45:45.062Z,99718.75
2024-02-13T09:48:48.662Z,99722.47
2024-02-13T09:51:52.162Z,99723.53
2024-02-13T09:54:53.874Z,99727.72
2024-02-13T09:57:56.143Z,99727.63
2024-02-13T10:01:01.666Z,99734.41
2024-02-13T10:04:04.080Z,99735.47
2024-02-13T10:07:05.926Z,99734.47
2024-02-13T10:10:08.995Z,99737.94
2024-02-13T10:13:10.836Z,99737.94
2024-02-13T10:16:20.183Z,99733.44
2024-02-13T10:19:21.891Z,99732.44
2024-02-13T10:22:23.596Z,99728.91
2024-02-13T10:25:25.842Z,99735.13
2024-02-13T10:28:27.741Z,99731.63
2024-02-13T10:31:30.993Z,99728.22
2024-02-13T10:34:36.496Z,99739.78
2024-02-13T10:37:38.547Z,99743.75
2024-02-13T10:40:43.175Z,99734.84
2024-02-13T10:43:45.262Z,99741.88
2024-02-13T10:46:49.822Z,99733.00
2024-02-13T10:49:53.102Z,99734.47
2024-02-13T10:52:54.743Z,99750.50
2024-02-13T10:55:56.981Z,99742.50
2024-02-13T10:58:58.878Z,99744.66
2024-02-13T11:02:02.626Z,99744.03
2024-02-13T11:05:04.878Z,99745.88
2024-02-13T11:08:07.139Z,99744.16
2024-02-13T11:11:15.497Z,99746.50
2024-02-13T11:14:18.268Z,99762.34
2024-02-13T11:17:21.420Z,99758.78
2024-02-13T11:20:24.381Z,99748.06
2024-02-13T11:23:29.528Z,99755.94
2024-02-13T11:26:33.360Z,99751.09
2024-02-13T11:29:35.123Z,99757.44
2024-02-13T11:32:38.513Z,99760.22
2024-02-13T11:35:46.034Z,99737.09
2024-02-13T11:38:49.733Z,99757.31
2024-02-13T11:41:58.456Z,99752.78
2024-02-13T11:45:00.486Z,99751.81
2024-02-13T11:48:04.171Z,99753.84
2024-02-13T11:51:06.062Z,99767.75
2024-02-13T11:54:08.953Z,99748.97
2024-02-13T11:57:11.551Z,99750.66
2024-02-13T12:00:14.807Z,99749.56
2024-02-13T12:03:17.897Z,99738.28
2024-02-13T12:06:19.789Z,99733.00
2024-02-13T12:09:21.571Z,99755.81
2024-02-13T12:12:23.569Z,99740.22
2024-02-13T12:15:25.460Z,99742.72
2024-02-13T12:18:29.296Z,99743.91
2024-02-13T12:21:31.503Z,99757.38
2024-02-13T12:24:33.814Z,99763.97
2024-02-13T12:27:36.090Z,99751.50
2024-02-13T12:30:38.028Z,99752.47
2024-02-13T12:33:41.287Z,99745.69
2024-02-13T12:36:43.203Z,99751.34
2024-02-13T12:39:44.964Z,99740.03
2024-02-13T12:42:46.606Z,99763.47
2024-02-13T12:45:48.270Z,99763.22
2024-02-13T12:48:51.474Z,99760.78
2024-02-13T12:51:53.539Z,99762.47
2024-02-13T12:54:55.252Z,99752.97
2024-02-13T12:57:56.932Z,99752.84
2024-02-13T13:00:58.688Z,99764.38
2024-02-13T13:04:01.807Z,99758.16
2024-02-13T13:07:03.775Z,99784.66
2024-02-13T13:10:05.843Z,99770.00
2024-02-13T13:13:07.697Z,99781.56
2024-02-13T13:16:09.488Z,99779.28
2024-02-13T13:19:13.158Z,99793.41
2024-02-13T13:22:14.971Z,99796.25
2024-02-13T13:25:16.710Z,99801.50
2024-02-13T13:28:18.667Z,99804.63
2024-02-13T13:31:20.486Z,99801.75
2024-02-13T13:34:23.669Z,99807.91
2024-02-13T13:37:25.593Z,99801.81
2024-02-13T13:40:27.428Z,99812.97
2024-02-13T13:43:29.432Z,99817.66
2024-02-13T13:46:31.097Z,99822.59
2024-02-13T13:49:34.224Z,99828.00
2024-02-13T13:52:35.943Z,99837.56
2024-02-13T13:55:39.540Z,99841.00
2024-02-13T13:58:41.213Z,99842.13
2024-02-13T14:01:42.889Z,99844.88
2024-02-13T14:04:46.040Z,99854.97
2024-02-13T14:07:47.684Z,99839.22
2024-02-13T14:10:49.430Z,99851.75
2024-02-13T14:13:52.146Z,99857.44
2024-02-13T14:16:53.809Z,99846.72
2024-02-13T14:19:56.915Z,99865.25
2024-02-13T14:22:58.610Z,99858.16
2024-02-13T14:26:00.305Z,99852.06
2024-02-13T14:29:01.927Z,99853.78
2024-02-13T14:32:03.848Z,99869.72
2024-02-13T14:35:07.669Z,99871.59
2024-02-13T14:38:09.466Z,99873.31
2024-02-13T14:41:11.234Z,99885.00
2024-02-13T14:44:12.869Z,99878.75
2024-02-13T14:47:14.633Z,99879.56
2024-02-13T14:50:17.940Z,99878.00
2024-02-13T14:53:19.743Z,99880.59
2024-02-13T14:56:21.404Z,99882.47
2024-02-13T14:59:23.085Z,99898.50
2024-02-13T15:02:24.800Z,99917.25
2024-02-13T15:05:28.068Z,99894.22
2024-02-13T15:08:29.906Z,99898.75
2024-02-13T15:11:32.088Z,99897.00
2024-02-13T15:14:33.986Z,99901.47
2024-02-13T15:17:35.795Z,99905.94
2024-02-13T15:20:38.851Z,99913.81
2024-02-13T15:23:40.542Z,99915.75
2024-02-13T15:26:42.281Z,99918.44
2024-02-13T15:29:44.045Z,99915.75
2024-02-13T15:32:45.904Z,99923.66
2024-02-13T15:35:49.070Z,99931.69
2024-02-13T15:38:50.845Z,99940.44
2024-02-13T15:41:52.587Z,99952.06
2024-02-13T15:44:54.316Z,99953.78
2024-02-13T15:47:56.113Z,99950.22
2024-02-13T15:50:59.328Z,99958.22
2024-02-13T15:54:01.098Z,99967.16
2024-02-13T15:57:02.928Z,99976.97
2024-02-13T16:00:06.064Z,99967.16
2024-02-13T16:03:07.850Z,99968.25
2024-02-13T16:06:11.036Z,99976.25
2024-02-13T16:09:13.633Z,99995.69
2024-02-13T16:12:15.329Z,99989.59
2024-02-13T16:15:17.109Z,99994.91
2024-02-13T16:18:22.610Z,100000.28
2024-02-13T16:21:25.724Z,100014.47
2024-02-13T16:24:27.445Z,100015.38
2024-02-13T16:27:29.151Z,100019.75
2024-02-13T16:30:30.817Z,100022.41
2024-02-13T16:33:32.738Z,100031.25
2024-02-13T16:36:35.906Z,100035.66
2024-02-13T16:39:37.572Z,100035.69
2024-02-13T16:42:39.233Z,100048.06
2024-02-13T16:45:40.935Z,100051.66
2024-02-13T16:48:42.782Z,100050.75
2024-02-13T16:51:45.877Z,100063.13
2024-02-13T16:54:49.514Z,100057.84
2024-02-13T16:57:52.646Z,100070.19
2024-02-13T17:00:54.317Z,100071.97
2024-02-13T17:03:56.001Z,100074.59
2024-02-13T17:06:59.305Z,100083.47
2024-02-13T17:10:01.121Z,100083.44
2024-02-13T17:13:02.819Z,100091.41
2024-02-13T17:16:05.077Z,100105.53
2024-02-13T17:19:07.051Z,100107.31
2024-02-13T17:22:10.248Z,100109.06
2024-02-13T17:25:13.018Z,100103.78
2024-02-13T17:28:14.821Z,100114.34
2024-02-13T17:31:16.861Z,100120.50
2024-02-13T17:34:18.841Z,100115.19
2024-02-13T17:37:22.188Z,100131.94
2024-02-13T17:40:23.903Z,100130.13
2024-02-13T17:43:25.568Z,100134.47
2024-02-13T17:46:27.208Z,100143.28
2024-02-13T17:49:28.936Z,100142.41
2024-02-13T17:52:32.019Z,100145.00
2024-02-13T17:55:33.733Z,100161.75
2024-02-13T17:58:35.374Z,100152.94
2024-02-13T18:01:37.064Z,100159.97
2024-02-13T18:04:38.699Z,100158.22
2024-02-13T18:07:41.973Z,100155.44
2024-02-13T18:10:43.627Z,100166.97
2024-02-13T18:13:45.288Z,100163.50
2024-02-13T18:16:46.916Z,100162.59
2024-02-13T18:19:48.677Z,100171.41
2024-02-13T18:22:51.715Z,100170.44
2024-02-13T18:25:53.441Z,100183.56
2024-02-13T18:28:55.688Z,100189.91
2024-02-13T18:31:58.449Z,100185.53
2024-02-13T18:35:00.414Z,100182.84
2024-02-13T18:38:03.506Z,100201.41
2024-02-13T18:41:05.185Z,100195.28
2024-02-13T18:44:07.010Z,100207.44
2024-02-13T18:47:08.650Z,100208.13
2024-02-13T18:50:10.345Z,100210.13
2024-02-13T18:53:13.365Z,100219.94
2024-02-13T18:56:16.095Z,100227.97
2024-02-13T18:59:17.783Z,100224.38
2024-02-13T19:02:20.533Z,100226.00
2024-02-13T19:05:22.520Z,100241.94
2024-02-13T19:08:25.686Z,100239.31
2024-02-13T19:11:27.377Z,100245.41
2024-02-13T19:14:29.157Z,100248.97
2024-02-13T19:17:31.046Z,100245.44
2024-02-13T19:20:32.804Z,100269.94
2024-02-13T19:23:35.991Z,100268.38
2024-02-13T19:26:38.034Z,100274.53
2024-02-13T19:29:40.519Z,100290.53
2024-02-13T19:32:42.353Z,100289.66
2024-02-13T19:35:44.184Z,100295.84
2024-02-13T19:38:47.364Z,100297.72
2024-02-13T19:41:49.118Z,100300.31
2024-02-13T19:44:50.868Z,100304.69
2024-02-13T19:47:52.657Z,100309.22
2024-02-13T19:50:54.377Z,100309.28
2024-02-13T19:53:57.471Z,100327.81
2024-02-13T19:56:59.287Z,100323.47
2024-02-13T20:00:01.165Z,100315.53
2024-02-13T20:03:03.224Z,100321.75
2024-02-13T20:06:05.338Z,100314.75
2024-02-13T20:09:08.446Z,100320.94
2024-02-13T20:12:10.310Z,100320.03
2024-02-13T20:15:12.200Z,100327.13
2024-02-13T20:18:13.989Z,100328.91
2024-02-13T20:21:15.788Z,100324.56
2024-02-13T20:24:18.876Z,100331.66
2024-02-13T20:27:20.532Z,100332.56
2024-02-13T20:30:22.201Z,100332.50
2024-02-13T20:33:23.937Z,100335.97
2024-02-13T20:36:25.734Z,100347.50
2024-02-13T20:39:28.750Z,100349.19
2024-02-13T20:42:30.397Z,100354.50
2024-02-13T20:45:32.105Z,100349.03
2024-02-13T20:48:33.907Z,100355.25
2024-02-13T20:51:36.267Z,100359.53
2024-02-13T20:54:39.256Z,100365.56
2024-02-13T20:57:40.995Z,100365.72
2024-02-13T21:00:42.717Z,100372.00
2024-02-13T21:03:44.564Z,100356.03
2024-02-13T21:06:47.982Z,100376.06
2024-02-13T21:09:51.315Z,100388.16
2024-02-13T21:12:52.964Z,100379.19
2024-02-13T21:15:54.614Z,100388.94
2024-02-13T21:18:56.941Z,100387.97
2024-02-13T21:21:58.704Z,100389.69
2024-02-13T21:25:01.702Z,100383.47
2024-02-13T21:28:03.609Z,100388.44
2024-02-13T21:31:05.307Z,100381.25
2024-02-13T21:34:07.550Z,100389.84
2024-02-13T21:37:09.378Z,100391.59
2024-02-13T21:40:12.910Z,100384.63
2024-02-13T21:43:14.595Z,100395.16
2024-02-13T21:46:16.275Z,100397.53
2024-02-13T21:49:18.116Z,100399.59
2024-02-13T21:52:19.857Z,100394.53
2024-02-13T21:55:22.893Z,100386.66
2024-02-13T21:58:24.550Z,100396.22
2024-02-13T22:01:26.222Z,100396.03
2024-02-13T22:04:29.945Z,100404.00
2024-02-13T22:07:32.929Z,100408.38
2024-02-13T22:10:36.040Z,100414.28
2024-02-13T22:13:37.721Z,100418.72
2024-02-13T22:16:39.375Z,100419.66
2024-02-13T22:19:41.130Z,100421.28
2024-02-13T22:22:42.909Z,100422.97
2024-02-13T22:25:45.972Z,100422.72
2024-02-13T22:28:47.634Z,100423.63
2024-02-13T22:31:49.297Z,100427.28
2024-02-13T22:34:53.415Z,100435.91
2024-02-13T22:37:57.201Z,100434.56
2024-02-13T22:41:00.272Z,100432.53
2024-02-13T22:44:02.002Z,100438.72
2024-02-13T22:47:03.734Z,100437.84
2024-02-13T22:50:06.051Z,100435.78
2024-02-13T22:53:07.822Z,100438.50
2024-02-13T22:56:10.856Z,100438.09
2024-02-13T22:59:12.782Z,100442.47
2024-02-13T23:02:14.452Z,100448.56
2024-02-13T23:05:16.292Z,100444.19
2024-02-13T23:08:17.948Z,100451.44
2024-02-13T23:11:20.983Z,100446.75
2024-02-13T23:14:22.798Z,100445.16
2024-02-13T23:17:24.533Z,100452.28
2024-02-13T23:20:26.426Z,100443.28
2024-02-13T23:23:28.101Z,100443.88
2024-02-13T23:26:31.128Z,100452.47
2024-02-13T23:29:32.847Z,100453.19
2024-02-13T23:32:34.589Z,100457.34
2024-02-13T23:35:36.340Z,100459.16
2024-02-13T23:38:38.140Z,100454.53
2024-02-13T23:41:41.228Z,100465.19
2024-02-13T23:44:42.948Z,100454.84
2024-02-13T23:47:44.938Z,100464.47
2024-02-13T23:50:46.725Z,100462.78
2024-02-13T23:53:48.464Z,100473.06
2024-02-13T23:56:51.607Z,100478.41
2024-02-13T23:59:53.361Z,100473.19
